createdAt,value
2023-02-01T06:46:34.792Z,1003.71
2023-02-01T06:47:44.356Z,1003.60
2023-02-01T06:48:43.385Z,1003.60
2023-02-01T06:49:35.612Z,1003.59
2023-02-01T06:50:35.765Z,1003.57
2023-02-01T06:51:35.570Z,1003.59
2023-02-01T06:52:35.559Z,1003.66
2023-02-01T06:53:35.592Z,1003.64
2023-02-01T06:54:35.546Z,1003.60
2023-02-01T06:55:35.541Z,1003.61
2023-02-01T06:56:35.527Z,1003.60
2023-02-01T06:57:35.523Z,1003.68
2023-02-01T06:58:35.528Z,1003.69
2023-02-01T06:59:35.493Z,1003.67
2023-02-01T07:00:35.503Z,1003.69
2023-02-01T07:01:35.502Z,1003.65
2023-02-01T07:02:35.473Z,1003.73
2023-02-01T07:03:35.472Z,1003.73
2023-02-01T07:04:35.454Z,1003.74
2023-02-01T07:05:35.437Z,1003.82
2023-02-01T07:06:35.421Z,1003.72
2023-02-01T07:07:35.421Z,1003.81
2023-02-01T07:08:35.419Z,1003.78
2023-02-01T07:09:35.389Z,1003.83
2023-02-01T07:10:35.391Z,1003.84
2023-02-01T07:11:35.387Z,1003.90
2023-02-01T07:12:35.361Z,1003.87
2023-02-01T07:13:35.373Z,1003.91
2023-02-01T07:14:35.332Z,1003.98
2023-02-01T07:15:35.337Z,1003.95
2023-02-01T07:16:35.398Z,1003.91
2023-02-01T07:17:35.315Z,1003.91
2023-02-01T07:18:35.325Z,1003.99
2023-02-01T07:19:35.293Z,1003.96
2023-02-01T07:20:35.292Z,1003.94
2023-02-01T07:21:35.267Z,1003.93
2023-02-01T07:22:35.267Z,1003.90
2023-02-01T07:23:35.280Z,1003.87
2023-02-01T07:24:35.225Z,1003.91
2023-02-01T07:25:35.227Z,1003.90
2023-02-01T07:26:35.279Z,1003.91
2023-02-01T07:27:35.211Z,1003.98
2023-02-01T07:28:35.211Z,1004.01
2023-02-01T07:29:35.186Z,1004.02
2023-02-01T07:30:35.224Z,1003.98
2023-02-01T07:31:35.165Z,1003.96
2023-02-01T07:32:35.213Z,1004.00
2023-02-01T07:33:35.179Z,1003.99
2023-02-01T07:34:35.141Z,1003.98
2023-02-01T07:35:35.130Z,1003.93
2023-02-01T07:36:35.102Z,1003.93
2023-02-01T07:37:35.113Z,1003.93
2023-02-01T07:38:35.119Z,1003.96
2023-02-01T07:39:35.339Z,1004.04
2023-02-01T07:40:35.083Z,1003.95
2023-02-01T07:41:35.065Z,1004.03
2023-02-01T07:42:35.065Z,1003.99
2023-02-01T07:43:35.085Z,1004.03
2023-02-01T07:44:35.036Z,1004.07
2023-02-01T07:45:36.998Z,1004.06
2023-02-01T07:46:35.012Z,1004.08
2023-02-01T07:47:35.006Z,1004.09
2023-02-01T07:48:35.061Z,1004.07
2023-02-01T07:49:34.997Z,1004.03
2023-02-01T07:50:34.970Z,1004.03
2023-02-01T07:51:34.968Z,1004.08
2023-02-01T07:52:34.984Z,1004.04
2023-02-01T07:53:34.980Z,1004.06
2023-02-01T07:54:34.929Z,1004.08
2023-02-01T07:55:34.933Z,1004.10
2023-02-01T07:56:34.917Z,1004.07
2023-02-01T07:57:34.900Z,1004.07
2023-02-01T07:58:34.885Z,1004.08
2023-02-01T07:59:34.971Z,1004.08
2023-02-01T08:00:34.930Z,1004.10
2023-02-01T08:01:34.903Z,1004.17
2023-02-01T08:02:34.934Z,1004.15
2023-02-01T08:03:34.845Z,1004.15
2023-02-01T08:04:34.845Z,1004.14
2023-02-01T08:05:34.819Z,1004.12
2023-02-01T08:06:34.814Z,1004.12
2023-02-01T08:07:34.849Z,1004.15
2023-02-01T08:08:34.904Z,1004.10
2023-02-01T08:09:34.818Z,1004.12
2023-02-01T08:10:34.776Z,1004.09
2023-02-01T08:11:34.758Z,1004.18
2023-02-01T08:12:34.747Z,1004.05
2023-02-01T08:13:34.742Z,1004.08
2023-02-01T08:14:34.749Z,1004.06
2023-02-01T08:15:34.707Z,1004.09
2023-02-01T08:16:34.723Z,1004.08
2023-02-01T08:17:34.799Z,1004.09
2023-02-01T08:18:34.696Z,1004.17
2023-02-01T08:19:34.699Z,1004.13
2023-02-01T08:20:34.679Z,1004.16
2023-02-01T08:21:34.708Z,1004.18
2023-02-01T08:22:34.649Z,1004.16
2023-02-01T08:23:34.632Z,1004.16
2023-02-01T08:24:42.209Z,1004.12
2023-02-01T08:25:41.089Z,1004.19
2023-02-01T08:26:41.087Z,1004.15
2023-02-01T08:27:34.586Z,1004.13
2023-02-01T08:28:41.370Z,1004.14
2023-02-01T08:29:42.237Z,1004.14
2023-02-01T08:30:34.575Z,1004.18
2023-02-01T08:31:34.626Z,1004.16
2023-02-01T08:32:34.548Z,1004.21
2023-02-01T08:33:34.524Z,1004.16
2023-02-01T08:34:35.850Z,1004.20
2023-02-01T08:35:43.155Z,1004.20
2023-02-01T08:36:34.596Z,1004.26
2023-02-01T08:37:34.502Z,1004.22
2023-02-01T08:38:34.511Z,1004.23
2023-02-01T08:39:34.481Z,1004.24
2023-02-01T08:40:34.491Z,1004.25
2023-02-01T08:41:34.449Z,1004.30
2023-02-01T08:42:34.464Z,1004.27
2023-02-01T08:43:34.421Z,1004.25
2023-02-01T08:44:34.447Z,1004.26
2023-02-01T08:45:34.412Z,1004.28
2023-02-01T08:46:34.394Z,1004.31
2023-02-01T08:47:34.405Z,1004.29
2023-02-01T08:48:34.385Z,1004.25
2023-02-01T08:49:34.408Z,1004.29
2023-02-01T08:50:34.408Z,1004.25
2023-02-01T08:51:34.341Z,1004.25
2023-02-01T08:52:34.340Z,1004.24
2023-02-01T08:53:34.339Z,1004.27
2023-02-01T08:54:34.477Z,1004.26
2023-02-01T08:55:34.309Z,1004.29
2023-02-01T08:56:34.312Z,1004.22
2023-02-01T08:57:34.313Z,1004.22
2023-02-01T08:58:34.277Z,1004.23
2023-02-01T08:59:34.274Z,1004.20
2023-02-01T09:00:34.326Z,1004.17
2023-02-01T09:01:34.247Z,1004.24
2023-02-01T09:02:34.265Z,1004.24
2023-02-01T09:03:40.754Z,1004.19
2023-02-01T09:04:41.778Z,1004.19
2023-02-01T09:05:48.493Z,1004.14
2023-02-01T09:06:34.212Z,1004.22
2023-02-01T09:07:34.194Z,1004.17
2023-02-01T09:08:34.243Z,1004.15
2023-02-01T09:09:34.183Z,1004.12
2023-02-01T09:10:35.377Z,1004.12
2023-02-01T09:11:34.167Z,1004.13
2023-02-01T09:12:34.142Z,1004.12
2023-02-01T09:13:34.136Z,1004.08
2023-02-01T09:14:34.134Z,1004.10
2023-02-01T09:15:34.175Z,1004.13
2023-02-01T09:16:34.128Z,1004.07
2023-02-01T09:17:34.100Z,1004.04
2023-02-01T09:18:34.063Z,1004.13
2023-02-01T09:19:34.073Z,1004.03
2023-02-01T09:20:34.056Z,1004.09
2023-02-01T09:21:34.131Z,1004.04
2023-02-01T09:22:34.026Z,1004.10
2023-02-01T09:23:34.039Z,1004.10
2023-02-01T09:24:34.037Z,1004.07
2023-02-01T09:25:33.992Z,1004.04
2023-02-01T09:26:34.077Z,1004.00
2023-02-01T09:27:33.978Z,1004.04
2023-02-01T09:28:33.985Z,1004.04
2023-02-01T09:29:33.968Z,1003.98
2023-02-01T09:30:33.963Z,1003.93
2023-02-01T09:31:34.097Z,1003.90
2023-02-01T09:32:33.980Z,1003.88
2023-02-01T09:33:33.909Z,1003.82
2023-02-01T09:34:33.904Z,1003.79
2023-02-01T09:35:33.919Z,1003.80
2023-02-01T09:36:33.914Z,1003.77
2023-02-01T09:37:33.870Z,1003.83
2023-02-01T09:38:36.404Z,1003.79
2023-02-01T09:39:33.846Z,1003.87
2023-02-01T09:40:33.865Z,1003.83
2023-02-01T09:41:33.880Z,1003.83
2023-02-01T09:42:33.827Z,1003.87
2023-02-01T09:43:33.804Z,1003.82
2023-02-01T09:44:43.983Z,1003.83
2023-02-01T09:45:33.808Z,1003.84
2023-02-01T09:46:33.884Z,1003.74
2023-02-01T09:47:33.765Z,1003.76
2023-02-01T09:48:33.759Z,1003.76
2023-02-01T09:49:33.744Z,1003.74
2023-02-01T09:50:33.774Z,1003.75
2023-02-01T09:51:33.721Z,1003.75
2023-02-01T09:52:33.728Z,1003.75
2023-02-01T09:53:33.715Z,1003.79
2023-02-01T09:54:33.694Z,1003.77
2023-02-01T09:55:33.715Z,1003.80
2023-02-01T09:56:33.679Z,1003.76
2023-02-01T09:57:33.674Z,1003.72
2023-02-01T09:58:33.656Z,1003.77
2023-02-01T09:59:33.639Z,1003.66
2023-02-01T10:00:33.655Z,1003.74
2023-02-01T10:01:33.711Z,1003.78
2023-02-01T10:02:33.601Z,1003.82
2023-02-01T10:03:33.688Z,1003.86
2023-02-01T10:04:33.587Z,1003.88
2023-02-01T10:05:33.584Z,1003.87
2023-02-01T10:06:33.558Z,1003.78
2023-02-01T10:07:33.539Z,1003.80
2023-02-01T10:08:33.547Z,1003.88
2023-02-01T10:09:33.548Z,1003.84
2023-02-01T10:10:33.562Z,1003.87
2023-02-01T10:11:33.510Z,1003.81
2023-02-01T10:12:33.498Z,1003.77
2023-02-01T10:13:33.488Z,1003.88
2023-02-01T10:14:33.480Z,1003.82
2023-02-01T10:15:33.553Z,1003.87
2023-02-01T10:16:33.655Z,1003.90
2023-02-01T10:17:33.463Z,1003.86
2023-02-01T10:18:33.445Z,1003.90
2023-02-01T10:19:33.418Z,1003.90
2023-02-01T10:20:33.417Z,1003.96
2023-02-01T10:21:33.423Z,1003.94
2023-02-01T10:22:55.088Z,1003.98
2023-02-01T10:23:34.907Z,1003.97
2023-02-01T10:24:33.367Z,1003.95
2023-02-01T10:25:33.354Z,1003.94
2023-02-01T10:26:33.411Z,1003.96
2023-02-01T10:27:33.329Z,1003.92
2023-02-01T10:28:33.338Z,1003.94
2023-02-01T10:29:33.314Z,1003.98
2023-02-01T10:30:35.403Z,1003.96
2023-02-01T10:31:33.509Z,1003.96
2023-02-01T10:32:33.286Z,1003.86
2023-02-01T10:33:33.270Z,1003.95
2023-02-01T10:34:33.267Z,1003.94
2023-02-01T10:35:33.245Z,1003.89
2023-02-01T10:36:33.272Z,1003.87
2023-02-01T10:37:33.324Z,1003.87
2023-02-01T10:38:33.245Z,1003.96
2023-02-01T10:39:33.206Z,1003.84
2023-02-01T10:40:33.204Z,1003.90
2023-02-01T10:41:33.228Z,1003.79
2023-02-01T10:42:33.189Z,1003.77
2023-02-01T10:43:33.164Z,1003.71
2023-02-01T10:44:33.178Z,1003.65
2023-02-01T10:45:33.144Z,1003.62
2023-02-01T10:46:33.199Z,1003.60
2023-02-01T10:47:33.121Z,1003.51
2023-02-01T10:48:33.111Z,1003.54
2023-02-01T10:49:33.115Z,1003.50
2023-02-01T10:50:33.099Z,1003.64
2023-02-01T10:51:33.114Z,1003.61
2023-02-01T10:52:33.070Z,1003.63
2023-02-01T10:53:33.068Z,1003.68
2023-02-01T10:54:33.081Z,1003.69
2023-02-01T10:55:33.044Z,1003.64
2023-02-01T10:56:33.072Z,1003.69
2023-02-01T10:57:33.049Z,1003.56
2023-02-01T10:58:33.084Z,1003.58
2023-02-01T10:59:32.998Z,1003.63
2023-02-01T11:00:32.984Z,1003.59
2023-02-01T11:01:33.038Z,1003.66
2023-02-01T11:02:33.061Z,1003.53
2023-02-01T11:03:32.953Z,1003.52
2023-02-01T11:04:32.945Z,1003.56
2023-02-01T11:05:32.940Z,1003.50
2023-02-01T11:06:32.951Z,1003.54
2023-02-01T11:07:32.904Z,1003.48
2023-02-01T11:08:32.900Z,1003.46
2023-02-01T11:09:32.932Z,1003.52
2023-02-01T11:10:32.881Z,1003.45
2023-02-01T11:11:32.883Z,1003.44
2023-02-01T11:12:32.862Z,1003.40
2023-02-01T11:13:32.882Z,1003.43
2023-02-01T11:14:32.847Z,1003.40
2023-02-01T11:15:32.832Z,1003.37
2023-02-01T11:16:32.912Z,1003.35
2023-02-01T11:17:32.800Z,1003.26
2023-02-01T11:18:32.801Z,1003.29
2023-02-01T11:19:32.791Z,1003.29
2023-02-01T11:20:32.806Z,1003.08
2023-02-01T11:21:32.798Z,1003.24
2023-02-01T11:22:32.768Z,1003.16
2023-02-01T11:23:39.242Z,1003.15
2023-02-01T11:24:32.743Z,1003.18
2023-02-01T11:25:32.710Z,1003.12
2023-02-01T11:26:32.774Z,1003.06
2023-02-01T11:27:33.405Z,1003.11
2023-02-01T11:28:32.693Z,1003.07
2023-02-01T11:29:32.685Z,1003.08
2023-02-01T11:30:32.761Z,1003.08
2023-02-01T11:31:32.683Z,1003.11
2023-02-01T11:32:32.652Z,1003.10
2023-02-01T11:33:32.631Z,1003.13
2023-02-01T11:34:32.634Z,1003.09
2023-02-01T11:35:32.614Z,1003.15
2023-02-01T11:36:32.624Z,1003.07
2023-02-01T11:37:32.626Z,1003.07
2023-02-01T11:38:32.579Z,1003.12
2023-02-01T11:39:32.578Z,1003.01
2023-02-01T11:40:32.574Z,1003.05
2023-02-01T11:41:32.578Z,1002.99
2023-02-01T11:42:32.544Z,1003.02
2023-02-01T11:43:32.531Z,1002.96
2023-02-01T11:44:32.534Z,1002.92
2023-02-01T11:45:32.516Z,1002.95
2023-02-01T11:46:32.578Z,1002.97
2023-02-01T11:47:32.523Z,1003.00
2023-02-01T11:48:32.507Z,1003.02
2023-02-01T11:49:32.465Z,1002.99
2023-02-01T11:50:32.603Z,1002.96
2023-02-01T11:51:32.464Z,1002.93
2023-02-01T11:52:32.489Z,1002.96
2023-02-01T11:53:32.433Z,1002.98
2023-02-01T11:54:32.419Z,1002.93
2023-02-01T11:55:32.532Z,1002.95
2023-02-01T11:56:32.388Z,1002.88
2023-02-01T11:57:32.394Z,1002.88
2023-02-01T11:58:32.392Z,1002.96
2023-02-01T11:59:32.356Z,1003.08
2023-02-01T12:00:32.360Z,1003.01
2023-02-01T12:01:32.346Z,1002.96
2023-02-01T12:02:32.343Z,1003.01
2023-02-01T12:03:32.404Z,1002.94
2023-02-01T12:04:32.313Z,1002.91
2023-02-01T12:05:32.298Z,1002.94
2023-02-01T12:06:32.280Z,1002.88
2023-02-01T12:07:32.296Z,1003.00
2023-02-01T12:08:32.263Z,1002.94
2023-02-01T12:09:32.256Z,1003.03
2023-02-01T12:10:32.245Z,1002.98
2023-02-01T12:11:32.230Z,1002.92
2023-02-01T12:12:32.242Z,1002.97
2023-02-01T12:13:32.236Z,1002.95
2023-02-01T12:14:32.191Z,1002.86
2023-02-01T12:15:32.200Z,1002.89
2023-02-01T12:16:32.232Z,1002.83
2023-02-01T12:17:32.186Z,1002.84
2023-02-01T12:18:32.155Z,1002.90
2023-02-01T12:19:32.145Z,1002.84
2023-02-01T12:20:32.128Z,1002.92
2023-02-01T12:21:32.129Z,1002.89
2023-02-01T12:22:32.145Z,1002.85
2023-02-01T12:23:32.109Z,1002.86
2023-02-01T12:24:32.115Z,1002.87
2023-02-01T12:25:32.098Z,1002.92
2023-02-01T12:26:32.145Z,1002.80
2023-02-01T12:27:32.088Z,1002.73
2023-02-01T12:28:32.059Z,1002.84
2023-02-01T12:29:32.053Z,1002.81
2023-02-01T12:30:32.083Z,1002.78
2023-02-01T12:31:32.044Z,1002.75
2023-02-01T12:32:32.037Z,1002.75
2023-02-01T12:33:31.999Z,1002.74
2023-02-01T12:34:38.516Z,1002.70
2023-02-01T12:35:38.587Z,1002.65
2023-02-01T12:36:38.516Z,1002.70
2023-02-01T12:37:39.864Z,1002.61
2023-02-01T12:38:38.453Z,1002.55
2023-02-01T12:39:31.935Z,1002.58
2023-02-01T12:40:31.937Z,1002.60
2023-02-01T12:41:31.949Z,1002.54
2023-02-01T12:42:31.936Z,1002.67
2023-02-01T12:43:31.900Z,1002.59
2023-02-01T12:44:31.901Z,1002.57
2023-02-01T12:45:31.958Z,1002.57
2023-02-01T12:46:31.881Z,1002.58
2023-02-01T12:47:31.893Z,1002.54
2023-02-01T12:48:31.843Z,1002.53
2023-02-01T12:49:31.836Z,1002.50
2023-02-01T12:50:31.823Z,1002.56
2023-02-01T12:51:31.810Z,1002.47
2023-02-01T12:52:31.851Z,1002.49
2023-02-01T12:53:31.808Z,1002.48
2023-02-01T12:54:31.790Z,1002.48
2023-02-01T12:55:31.785Z,1002.53
2023-02-01T12:56:31.770Z,1002.37
2023-02-01T12:57:31.776Z,1002.43
2023-02-01T12:58:31.791Z,1002.50
2023-02-01T12:59:31.746Z,1002.43
2023-02-01T13:00:31.728Z,1002.41
2023-02-01T13:01:31.774Z,1002.49
2023-02-01T13:02:31.736Z,1002.48
2023-02-01T13:03:31.688Z,1002.53
2023-02-01T13:04:31.681Z,1002.46
2023-02-01T13:05:31.674Z,1002.39
2023-02-01T13:06:31.661Z,1002.43
2023-02-01T13:07:31.680Z,1002.35
2023-02-01T13:08:31.634Z,1002.37
2023-02-01T13:09:31.638Z,1002.32
2023-02-01T13:10:31.606Z,1002.30
2023-02-01T13:11:31.611Z,1002.34
2023-02-01T13:12:31.617Z,1002.22
2023-02-01T13:13:31.621Z,1002.29
2023-02-01T13:14:31.574Z,1002.25
2023-02-01T13:15:31.567Z,1002.29
2023-02-01T13:16:31.607Z,1002.31
2023-02-01T13:17:31.565Z,1002.24
2023-02-01T13:18:31.613Z,1002.35
2023-02-01T13:19:31.537Z,1002.31
2023-02-01T13:20:31.509Z,1002.40
2023-02-01T13:21:31.518Z,1002.36
2023-02-01T13:22:31.500Z,1002.28
2023-02-01T13:23:31.510Z,1002.36
2023-02-01T13:24:31.471Z,1002.33
2023-02-01T13:25:31.499Z,1002.35
2023-02-01T13:26:31.472Z,1002.31
2023-02-01T13:27:31.489Z,1002.36
2023-02-01T13:28:31.463Z,1002.30
2023-02-01T13:29:31.427Z,1002.30
2023-02-01T13:30:31.484Z,1002.28
2023-02-01T13:31:31.449Z,1002.33
2023-02-01T13:33:50.298Z,1002.32
2023-02-01T13:33:59.613Z,1002.38
2023-02-01T13:34:31.370Z,1002.40
2023-02-01T13:35:31.350Z,1002.28
2023-02-01T13:36:31.346Z,1002.32
2023-02-01T13:37:31.361Z,1002.31
2023-02-01T13:38:31.338Z,1002.32
2023-02-01T13:39:31.324Z,1002.35
2023-02-01T13:40:31.303Z,1002.45
2023-02-01T13:41:31.301Z,1002.44
2023-02-01T13:42:31.281Z,1002.29
2023-02-01T13:43:38.896Z,1002.33
2023-02-01T13:44:37.754Z,1002.33
2023-02-01T13:45:31.263Z,1002.35
2023-02-01T13:46:31.261Z,1002.30
2023-02-01T13:47:31.233Z,1002.32
2023-02-01T13:48:31.242Z,1002.37
2023-02-01T13:49:31.202Z,1002.38
2023-02-01T13:50:31.195Z,1002.38
2023-02-01T13:51:31.179Z,1002.39
2023-02-01T13:52:31.177Z,1002.46
2023-02-01T13:53:31.247Z,1002.44
2023-02-01T13:54:31.155Z,1002.36
2023-02-01T13:55:31.152Z,1002.35
2023-02-01T13:56:31.131Z,1002.28
2023-02-01T13:57:31.134Z,1002.33
2023-02-01T13:58:31.122Z,1002.33
2023-02-01T13:59:31.110Z,1002.38
2023-02-01T14:00:31.106Z,1002.45
2023-02-01T14:01:31.112Z,1002.37
2023-02-01T14:02:31.088Z,1002.36
2023-02-01T14:03:31.082Z,1002.32
2023-02-01T14:04:31.069Z,1002.37
2023-02-01T14:05:31.057Z,1002.32
2023-02-01T14:06:31.066Z,1002.41
2023-02-01T14:07:31.018Z,1002.36
2023-02-01T14:08:31.015Z,1002.38
2023-02-01T14:09:31.010Z,1002.29
2023-02-01T14:10:30.984Z,1002.53
2023-02-01T14:11:31.019Z,1002.46
2023-02-01T14:12:31.002Z,1002.69
2023-02-01T14:13:30.970Z,1002.57
2023-02-01T14:14:30.939Z,1002.58
2023-02-01T14:15:30.979Z,1002.61
2023-02-01T14:16:30.925Z,1002.59
2023-02-01T14:17:30.927Z,1002.56
2023-02-01T14:18:30.925Z,1002.66
2023-02-01T14:19:30.918Z,1002.56
2023-02-01T14:20:30.880Z,1002.58
2023-02-01T14:21:30.926Z,1002.68
2023-02-01T14:22:30.871Z,1002.63
2023-02-01T14:23:30.957Z,1002.69
2023-02-01T14:24:30.877Z,1002.71
2023-02-01T14:25:30.827Z,1002.80
2023-02-01T14:26:30.844Z,1002.66
2023-02-01T14:27:30.807Z,1002.77
2023-02-01T14:28:30.831Z,1002.75
2023-02-01T14:29:30.782Z,1002.73
2023-02-01T14:30:30.780Z,1002.76
2023-02-01T14:31:30.834Z,1002.84
2023-02-01T14:32:30.763Z,1002.86
2023-02-01T14:33:30.795Z,1002.87
2023-02-01T14:34:30.743Z,1002.86
2023-02-01T14:35:30.727Z,1002.86
2023-02-01T14:36:30.726Z,1002.90
2023-02-01T14:37:30.737Z,1002.87
2023-02-01T14:38:30.712Z,1002.86
2023-02-01T14:39:30.686Z,1002.81
2023-02-01T14:40:30.878Z,1002.81
2023-02-01T14:41:30.688Z,1002.93
2023-02-01T14:42:30.680Z,1002.89
2023-02-01T14:43:33.134Z,1002.89
2023-02-01T14:44:30.653Z,1002.83
2023-02-01T14:45:30.662Z,1002.94
2023-02-01T14:46:30.671Z,1002.88
2023-02-01T14:47:30.611Z,1002.90
2023-02-01T14:48:30.584Z,1002.96
2023-02-01T14:49:30.621Z,1002.90
2023-02-01T14:50:30.585Z,1002.81
2023-02-01T14:51:30.568Z,1002.89
2023-02-01T14:52:30.550Z,1002.99
2023-02-01T14:53:30.530Z,1002.89
2023-02-01T14:54:30.578Z,1002.89
2023-02-01T14:55:30.510Z,1002.90
2023-02-01T14:56:30.499Z,1002.98
2023-02-01T14:57:30.501Z,1002.96
2023-02-01T14:58:30.478Z,1002.97
2023-02-01T14:59:30.511Z,1002.93
2023-02-01T15:00:30.451Z,1002.93
2023-02-01T15:01:31.687Z,1002.87
2023-02-01T15:02:30.475Z,1002.87
2023-02-01T15:03:30.431Z,1002.89
2023-02-01T15:04:30.442Z,1002.96
2023-02-01T15:05:30.410Z,1002.85
2023-02-01T15:06:30.405Z,1002.80
2023-02-01T15:07:30.390Z,1003.02
2023-02-01T15:08:30.377Z,1002.92
2023-02-01T15:09:30.389Z,1002.93
2023-02-01T15:10:30.349Z,1002.96
2023-02-01T15:11:30.381Z,1002.94
2023-02-01T15:12:30.321Z,1002.91
2023-02-01T15:13:30.331Z,1002.93
2023-02-01T15:14:30.332Z,1002.97
2023-02-01T15:15:30.340Z,1002.93
2023-02-01T15:16:30.284Z,1002.91
2023-02-01T15:17:30.278Z,1002.96
2023-02-01T15:18:30.260Z,1003.01
2023-02-01T15:19:30.286Z,1003.05
2023-02-01T15:20:30.248Z,1003.05
2023-02-01T15:21:30.965Z,1003.00
2023-02-01T15:22:30.242Z,1003.07
2023-02-01T15:23:30.222Z,1003.09
2023-02-01T15:24:30.236Z,1003.12
2023-02-01T15:25:30.211Z,1003.06
2023-02-01T15:26:30.235Z,1003.11
2023-02-01T15:27:30.235Z,1003.05
2023-02-01T15:28:30.165Z,1003.10
2023-02-01T15:29:30.170Z,1003.07
2023-02-01T15:30:30.141Z,1003.09
2023-02-01T15:31:30.260Z,1003.04
2023-02-01T15:32:30.115Z,1003.20
2023-02-01T15:33:30.144Z,1003.16
2023-02-01T15:34:30.120Z,1003.12
2023-02-01T15:35:30.101Z,1003.12
2023-02-01T15:36:30.091Z,1003.08
2023-02-01T15:37:30.128Z,1003.13
2023-02-01T15:38:30.093Z,1003.12
2023-02-01T15:39:30.068Z,1003.09
2023-02-01T15:40:30.033Z,1003.06
2023-02-01T15:41:30.019Z,1003.03
2023-02-01T15:42:30.006Z,1003.03
2023-02-01T15:43:30.003Z,1003.01
2023-02-01T15:44:30.142Z,1003.05
2023-02-01T15:45:29.990Z,1003.06
2023-02-01T15:46:30.138Z,1003.01
2023-02-01T15:47:30.009Z,1003.05
2023-02-01T15:48:29.953Z,1002.99
2023-02-01T15:49:29.954Z,1003.02
2023-02-01T15:50:29.951Z,1003.05
2023-02-01T15:51:29.930Z,1003.10
2023-02-01T15:52:29.903Z,1003.16
2023-02-01T15:53:29.904Z,1003.18
2023-02-01T15:54:29.924Z,1003.20
2023-02-01T15:55:29.910Z,1003.13
2023-02-01T15:56:29.877Z,1003.17
2023-02-01T15:57:29.857Z,1003.10
2023-02-01T15:58:29.851Z,1003.20
2023-02-01T15:59:29.839Z,1003.21
2023-02-01T16:00:29.883Z,1003.23
2023-02-01T16:01:29.897Z,1003.17
2023-02-01T16:02:36.386Z,1003.19
2023-02-01T16:03:29.801Z,1003.30
2023-02-01T16:04:29.773Z,1003.25
2023-02-01T16:05:29.825Z,1003.19
2023-02-01T16:06:29.760Z,1003.22
2023-02-01T16:07:29.754Z,1003.21
2023-02-01T16:08:29.737Z,1003.25
2023-02-01T16:09:29.732Z,1003.24
2023-02-01T16:10:29.738Z,1003.30
2023-02-01T16:11:29.712Z,1003.27
2023-02-01T16:12:29.707Z,1003.33
2023-02-01T16:13:29.762Z,1003.29
2023-02-01T16:14:29.687Z,1003.28
2023-02-01T16:15:29.684Z,1003.29
2023-02-01T16:16:29.692Z,1003.31
2023-02-01T16:17:29.637Z,1003.30
2023-02-01T16:18:29.656Z,1003.29
2023-02-01T16:19:29.684Z,1003.29
2023-02-01T16:20:29.630Z,1003.31
2023-02-01T16:21:29.678Z,1003.29
2023-02-01T16:22:29.589Z,1003.33
2023-02-01T16:23:31.446Z,1003.26
2023-02-01T16:24:29.563Z,1003.33
2023-02-01T16:25:29.657Z,1003.26
2023-02-01T16:26:29.566Z,1003.27
2023-02-01T16:27:29.539Z,1003.21
2023-02-01T16:28:29.582Z,1003.23
2023-02-01T16:29:29.523Z,1003.24
2023-02-01T16:30:29.581Z,1003.37
2023-02-01T16:31:29.667Z,1003.44
2023-02-01T16:32:29.498Z,1003.48
2023-02-01T16:33:29.476Z,1003.45
2023-02-01T16:34:29.468Z,1003.47
2023-02-01T16:35:29.485Z,1003.49
2023-02-01T16:36:29.434Z,1003.42
2023-02-01T16:37:29.479Z,1003.60
2023-02-01T16:38:29.482Z,1003.73
2023-02-01T16:39:29.476Z,1003.76
2023-02-01T16:40:29.519Z,1003.78
2023-02-01T16:41:29.434Z,1003.81
2023-02-01T16:42:29.605Z,1003.80
2023-02-01T16:43:29.667Z,1003.77
2023-02-01T16:44:29.406Z,1003.85
2023-02-01T16:45:36.922Z,1003.79
2023-02-01T16:46:29.394Z,1003.99
2023-02-01T16:47:36.945Z,1003.83
2023-02-01T16:48:29.374Z,1003.85
2023-02-01T16:49:29.373Z,1003.80
2023-02-01T16:50:29.430Z,1003.88
2023-02-01T16:51:29.348Z,1003.94
2023-02-01T16:52:29.382Z,1003.95
2023-02-01T16:53:29.317Z,1004.02
2023-02-01T16:54:29.305Z,1004.07
2023-02-01T16:55:29.309Z,1004.00
2023-02-01T16:56:29.352Z,1004.00
2023-02-01T16:57:29.269Z,1004.06
2023-02-01T16:58:29.276Z,1004.05
2023-02-01T16:59:29.247Z,1004.02
2023-02-01T17:00:29.268Z,1004.02
2023-02-01T17:01:29.304Z,1003.96
2023-02-01T17:02:29.220Z,1004.05
2023-02-01T17:03:29.220Z,1004.05
2023-02-01T17:04:29.443Z,1004.05
2023-02-01T17:05:29.205Z,1004.01
2023-02-01T17:06:29.213Z,1003.98
2023-02-01T17:07:29.180Z,1004.06
2023-02-01T17:08:29.157Z,1004.03
2023-02-01T17:09:29.178Z,1004.02
2023-02-01T17:10:33.952Z,1004.03
2023-02-01T17:11:29.145Z,1004.05
2023-02-01T17:12:29.125Z,1004.05
2023-02-01T17:13:29.126Z,1004.11
2023-02-01T17:14:29.098Z,1004.12
2023-02-01T17:15:29.091Z,1004.06
2023-02-01T17:16:29.344Z,1004.07
2023-02-01T17:17:38.500Z,1004.10
2023-02-01T17:18:29.067Z,1004.15
2023-02-01T17:19:29.036Z,1004.18
2023-02-01T17:20:29.053Z,1004.14
2023-02-01T17:21:29.048Z,1004.20
2023-02-01T17:22:28.970Z,1004.27
2023-02-01T17:23:29.021Z,1004.25
2023-02-01T17:24:42.404Z,1004.16
2023-02-01T17:25:28.926Z,1004.23
2023-02-01T17:26:28.978Z,1004.20
2023-02-01T17:27:28.906Z,1004.21
2023-02-01T17:28:28.922Z,1004.36
2023-02-01T17:29:28.885Z,1004.29
2023-02-01T17:30:28.874Z,1004.38
2023-02-01T17:31:28.911Z,1004.35
2023-02-01T17:32:29.111Z,1004.31
2023-02-01T17:33:28.847Z,1004.29
2023-02-01T17:34:28.833Z,1004.35
2023-02-01T17:35:28.843Z,1004.32
2023-02-01T17:36:28.846Z,1004.37
2023-02-01T17:37:28.824Z,1004.36
2023-02-01T17:38:28.791Z,1004.36
2023-02-01T17:39:28.784Z,1004.29
2023-02-01T17:40:28.923Z,1004.35
2023-02-01T17:41:28.846Z,1004.42
2023-02-01T17:42:28.788Z,1004.40
2023-02-01T17:43:28.736Z,1004.34
2023-02-01T17:44:28.727Z,1004.37
2023-02-01T17:45:28.745Z,1004.36
2023-02-01T17:46:28.747Z,1004.38
2023-02-01T17:47:28.729Z,1004.44
2023-02-01T17:48:29.484Z,1004.47
2023-02-01T17:49:28.683Z,1004.42
2023-02-01T17:50:28.657Z,1004.43
2023-02-01T17:51:28.737Z,1004.47
2023-02-01T17:52:28.732Z,1004.47
2023-02-01T17:53:28.725Z,1004.41
2023-02-01T17:54:28.651Z,1004.41
2023-02-01T17:55:28.611Z,1004.46
2023-02-01T17:56:28.643Z,1004.45
2023-02-01T17:57:28.607Z,1004.47
2023-02-01T17:58:28.576Z,1004.53
2023-02-01T17:59:28.571Z,1004.55
2023-02-01T18:00:28.594Z,1004.56
2023-02-01T18:01:28.656Z,1004.59
2023-02-01T18:02:28.625Z,1004.57
2023-02-01T18:03:28.526Z,1004.62
2023-02-01T18:04:28.552Z,1004.58
2023-02-01T18:05:28.512Z,1004.62
2023-02-01T18:06:28.498Z,1004.57
2023-02-01T18:07:28.512Z,1004.60
2023-02-01T18:08:28.498Z,1004.59
2023-02-01T18:09:28.476Z,1004.59
2023-02-01T18:10:28.474Z,1004.58
2023-02-01T18:11:28.437Z,1004.56
2023-02-01T18:12:28.456Z,1004.55
2023-02-01T18:13:28.424Z,1004.60
2023-02-01T18:14:28.405Z,1004.55
2023-02-01T18:15:28.527Z,1004.56
2023-02-01T18:16:28.458Z,1004.60
2023-02-01T18:17:28.398Z,1004.56
2023-02-01T18:18:28.367Z,1004.64
2023-02-01T18:19:28.385Z,1004.63
2023-02-01T18:20:28.380Z,1004.61
2023-02-01T18:21:28.336Z,1004.62
2023-02-01T18:22:35.933Z,1004.68
2023-02-01T18:23:28.307Z,1004.69
2023-02-01T18:24:28.303Z,1004.70
2023-02-01T18:25:28.288Z,1004.72
2023-02-01T18:26:28.303Z,1004.60
2023-02-01T18:27:28.298Z,1004.64
2023-02-01T18:28:28.268Z,1004.52
2023-02-01T18:29:28.261Z,1004.53
2023-02-01T18:30:28.247Z,1004.61
2023-02-01T18:31:28.359Z,1004.59
2023-02-01T18:32:28.278Z,1004.64
2023-02-01T18:33:28.229Z,1004.59
2023-02-01T18:34:28.202Z,1004.63
2023-02-01T18:35:28.228Z,1004.63
2023-02-01T18:36:28.207Z,1004.76
2023-02-01T18:37:28.197Z,1004.83
2023-02-01T18:38:28.164Z,1004.86
2023-02-01T18:39:28.149Z,1004.82
2023-02-01T18:40:28.164Z,1004.90
2023-02-01T18:41:28.219Z,1004.82
2023-02-01T18:42:28.160Z,1004.85
2023-02-01T18:43:28.238Z,1004.79
2023-02-01T18:44:28.097Z,1004.73
2023-02-01T18:45:30.069Z,1004.67
2023-02-01T18:46:28.137Z,1004.75
2023-02-01T18:47:28.089Z,1004.69
2023-02-01T18:48:28.121Z,1004.77
2023-02-01T18:49:28.210Z,1004.79
2023-02-01T18:50:28.049Z,1004.71
2023-02-01T18:51:28.027Z,1004.76